createdAt,value
2022-08-16T00:01:24.396Z,7.68
2022-08-16T00:03:53.760Z,7.55
2022-08-16T00:06:22.496Z,7.85
2022-08-16T00:08:50.151Z,8.10
2022-08-16T00:11:21.590Z,7.15
2022-08-16T00:13:53.587Z,7.80
2022-08-16T00:17:00.528Z,7.90
2022-08-16T00:21:55.206Z,7.50
2022-08-16T00:24:32.706Z,7.40
2022-08-16T00:27:03.876Z,8.02
2022-08-16T00:29:32.812Z,8.07
2022-08-16T00:32:05.950Z,7.75
2022-08-16T00:34:43.687Z,7.23
2022-08-16T00:37:17.116Z,7.65
2022-08-16T00:39:56.938Z,7.97
2022-08-16T00:42:31.709Z,7.57
2022-08-16T00:45:25.157Z,7.82
2022-08-16T00:47:54.711Z,8.10
2022-08-16T00:50:36.561Z,7.88
2022-08-16T00:53:08.148Z,7.75
2022-08-16T00:55:41.940Z,7.78
2022-08-16T00:58:12.769Z,7.50
2022-08-16T01:00:54.368Z,7.82
2022-08-16T01:03:30.201Z,7.47
2022-08-16T01:05:58.220Z,7.78
2022-08-16T01:08:36.547Z,7.88
2022-08-16T01:11:06.560Z,8.20
2022-08-16T01:13:37.587Z,8.20
2022-08-16T01:16:35.474Z,7.63
2022-08-16T01:19:23.505Z,7.72
2022-08-16T01:22:58.861Z,6.97
2022-08-16T01:24:57.124Z,7.05
2022-08-16T01:27:35.870Z,6.82
2022-08-16T01:30:19.923Z,7.43
2022-08-16T01:33:01.872Z,7.22
2022-08-16T01:36:12.009Z,6.72
2022-08-16T01:38:47.020Z,7.32
2022-08-16T01:41:26.360Z,7.18
2022-08-16T01:44:01.433Z,7.47
2022-08-16T01:46:44.740Z,8.00
2022-08-16T01:49:43.035Z,8.32
2022-08-16T01:52:28.071Z,8.25
2022-08-16T01:55:35.635Z,7.57
2022-08-16T01:58:05.163Z,7.90
2022-08-16T02:00:34.176Z,8.38
2022-08-16T02:03:02.568Z,7.97
2022-08-16T02:05:30.575Z,8.40
2022-08-16T02:08:00.461Z,9.27
2022-08-16T02:10:28.914Z,8.93
2022-08-16T02:13:00.681Z,9.40
2022-08-16T02:15:35.618Z,10.60
2022-08-16T02:18:12.823Z,11.30
2022-08-16T02:20:46.483Z,11.48
2022-08-16T02:23:17.308Z,12.30
2022-08-16T02:25:52.154Z,11.60
2022-08-16T02:28:26.238Z,12.25
2022-08-16T02:30:58.316Z,11.52
2022-08-16T02:33:44.526Z,12.30
2022-08-16T02:36:48.087Z,11.98
2022-08-16T02:39:11.160Z,12.60
2022-08-16T02:41:42.159Z,11.73
2022-08-16T02:44:13.634Z,12.38
2022-08-16T02:46:50.650Z,12.88
2022-08-16T02:49:22.095Z,12.13
2022-08-16T02:51:59.330Z,12.77
2022-08-16T02:54:29.062Z,11.70
2022-08-16T02:56:56.509Z,12.55
2022-08-16T02:59:24.426Z,12.70
2022-08-16T03:01:51.789Z,11.93
2022-08-16T03:04:39.316Z,12.82
2022-08-16T03:07:14.885Z,12.07
2022-08-16T03:09:45.424Z,12.60
2022-08-16T03:12:16.601Z,12.73
2022-08-16T03:14:47.508Z,12.38
2022-08-16T03:17:17.056Z,11.93
2022-08-16T03:19:48.608Z,11.35
2022-08-16T03:22:28.677Z,12.10
2022-08-16T03:25:04.896Z,12.13
2022-08-16T03:27:41.027Z,11.65
2022-08-16T03:30:24.644Z,12.18
2022-08-16T03:32:56.964Z,11.70
2022-08-16T03:35:32.759Z,12.15
2022-08-16T03:38:34.666Z,12.45
2022-08-16T03:40:56.650Z,11.88
2022-08-16T03:43:51.932Z,11.88
2022-08-16T03:46:44.558Z,11.73
2022-08-16T03:49:05.393Z,12.05
2022-08-16T03:51:34.716Z,11.52
2022-08-16T03:54:12.163Z,11.88
2022-08-16T03:56:57.113Z,11.43
2022-08-16T03:59:29.378Z,12.20
2022-08-16T04:02:01.299Z,12.88
2022-08-16T04:04:33.550Z,11.93
2022-08-16T04:07:07.409Z,12.70
2022-08-16T04:09:38.645Z,11.65
2022-08-16T04:12:52.343Z,11.90
2022-08-16T04:15:02.457Z,12.20
2022-08-16T04:17:32.598Z,11.57
2022-08-16T04:20:24.060Z,12.80
2022-08-16T04:22:56.053Z,12.02
2022-08-16T04:25:24.805Z,11.18
2022-08-16T04:27:56.133Z,12.07
2022-08-16T04:30:30.239Z,11.95
2022-08-16T04:33:02.654Z,12.30
2022-08-16T04:35:35.868Z,11.50
2022-08-16T04:38:10.676Z,11.38
2022-08-16T04:40:50.230Z,12.20
2022-08-16T04:43:18.752Z,11.55
2022-08-16T04:45:47.417Z,11.65
2022-08-16T04:48:32.609Z,12.40
2022-08-16T04:51:07.845Z,12.82
2022-08-16T04:53:43.942Z,12.55
2022-08-16T04:56:11.883Z,12.23
2022-08-16T04:58:45.821Z,11.93
2022-08-16T05:01:15.522Z,12.70
2022-08-16T05:04:00.275Z,11.43
2022-08-16T05:06:42.317Z,12.23
2022-08-16T05:09:38.415Z,12.02
2022-08-16T05:12:06.850Z,12.15
2022-08-16T05:14:45.759Z,12.40
2022-08-16T05:17:18.029Z,12.10
2022-08-16T05:19:46.790Z,11.68
2022-08-16T05:22:28.404Z,11.90
2022-08-16T05:24:57.015Z,11.68
2022-08-16T05:27:24.513Z,11.32
2022-08-16T05:30:00.082Z,11.82
2022-08-16T05:32:36.488Z,12.77
2022-08-16T05:35:16.023Z,11.50
2022-08-16T05:40:26.683Z,11.20
2022-08-16T05:42:55.509Z,10.52
2022-08-16T05:45:24.199Z,11.07
2022-08-16T05:47:59.589Z,10.23
2022-08-16T05:50:34.955Z,10.93
2022-08-16T05:53:03.748Z,10.20
2022-08-16T05:55:35.233Z,11.00
2022-08-16T05:58:08.277Z,11.23
2022-08-16T06:00:37.064Z,10.82
2022-08-16T06:03:04.210Z,12.35
2022-08-16T06:05:51.545Z,12.27
2022-08-16T06:08:31.545Z,13.15
2022-08-16T06:11:09.990Z,13.95
2022-08-16T06:13:41.967Z,13.60
2022-08-16T06:16:18.316Z,14.40
2022-08-16T06:18:47.785Z,14.52
2022-08-16T06:21:22.548Z,14.80
2022-08-16T06:23:54.283Z,14.93
2022-08-16T06:26:24.282Z,15.35
2022-08-16T06:29:05.317Z,15.35
2022-08-16T06:31:49.266Z,17.00
2022-08-16T06:34:55.580Z,17.88
2022-08-16T06:37:13.368Z,16.30
2022-08-16T06:39:49.845Z,16.60
2022-08-16T06:42:30.272Z,17.95
2022-08-16T06:45:29.879Z,18.10
2022-08-16T06:48:06.367Z,17.65
2022-08-16T06:50:35.357Z,17.15
2022-08-16T06:53:08.845Z,16.90
2022-08-16T06:55:47.100Z,16.40
2022-08-16T06:58:31.416Z,17.02
2022-08-16T07:01:09.865Z,16.58
2022-08-16T07:03:54.482Z,16.60
2022-08-16T07:06:26.497Z,14.88
2022-08-16T07:09:00.986Z,14.77
2022-08-16T07:11:47.341Z,14.50
2022-08-16T07:14:25.703Z,13.95
2022-08-16T07:16:58.329Z,15.48
2022-08-16T07:20:01.684Z,14.82
2022-08-16T07:22:38.047Z,14.80
2022-08-16T07:25:15.981Z,14.30
2022-08-16T07:27:44.287Z,14.87
2022-08-16T07:30:39.925Z,14.07
2022-08-16T07:33:07.401Z,14.45
2022-08-16T07:35:44.396Z,13.38
2022-08-16T07:38:19.719Z,13.13
2022-08-16T07:41:00.156Z,14.18
2022-08-16T07:43:29.745Z,14.18
2022-08-16T07:46:01.420Z,15.30
2022-08-16T07:48:30.913Z,13.73
2022-08-16T07:51:00.856Z,12.93
2022-08-16T07:53:34.765Z,12.55
2022-08-16T07:56:11.564Z,13.65
2022-08-16T07:58:40.488Z,13.60
2022-08-16T08:01:15.550Z,13.02
2022-08-16T08:03:58.296Z,13.07
2022-08-16T08:06:33.139Z,13.63
2022-08-16T08:09:07.024Z,12.50
2022-08-16T08:11:34.435Z,12.73
2022-08-16T08:14:06.634Z,11.82
2022-08-16T08:16:39.752Z,11.20
2022-08-16T08:19:17.823Z,11.00
2022-08-16T08:21:59.452Z,11.02
2022-08-16T08:24:48.667Z,11.30
2022-08-16T08:27:22.484Z,10.20
2022-08-16T08:30:49.431Z,10.27
2022-08-16T08:32:51.125Z,9.77
2022-08-16T08:35:27.061Z,9.77
2022-08-16T08:37:56.520Z,9.63
2022-08-16T08:40:29.714Z,9.50
2022-08-16T08:43:12.216Z,9.48
2022-08-16T08:45:52.817Z,9.38
2022-08-16T08:48:33.681Z,9.18
2022-08-16T08:51:09.211Z,8.52
2022-08-16T08:53:43.354Z,9.32
2022-08-16T08:56:22.984Z,8.73
2022-08-16T08:58:58.291Z,9.02
2022-08-16T09:01:43.007Z,8.65
2022-08-16T09:04:24.319Z,8.77
2022-08-16T09:06:53.584Z,8.68
2022-08-16T09:09:23.215Z,8.27
2022-08-16T09:12:04.123Z,8.52
2022-08-16T09:14:49.417Z,7.70
2022-08-16T09:17:47.198Z,7.40
2022-08-16T09:20:14.362Z,7.78
2022-08-16T09:25:25.678Z,7.47
2022-08-16T09:27:58.096Z,6.90
2022-08-16T09:30:36.428Z,6.72
2022-08-16T09:33:18.341Z,7.32
2022-08-16T09:35:53.216Z,7.43
2022-08-16T09:38:32.026Z,7.57
2022-08-16T09:41:02.771Z,6.50
2022-08-16T09:43:59.569Z,6.38
2022-08-16T09:46:44.560Z,5.63
2022-08-16T09:49:05.827Z,5.47
2022-08-16T09:51:37.478Z,5.30
2022-08-16T09:54:09.625Z,5.55
2022-08-16T09:56:39.643Z,5.35
2022-08-16T09:59:25.230Z,5.60
2022-08-16T10:01:54.472Z,5.07
2022-08-16T10:04:29.812Z,5.03
2022-08-16T10:07:15.142Z,4.85
2022-08-16T10:09:55.873Z,4.60
2022-08-16T10:12:55.756Z,5.00
2022-08-16T10:15:25.313Z,4.45
2022-08-16T10:18:00.989Z,4.65
2022-08-16T10:20:35.232Z,4.50
2022-08-16T10:23:17.064Z,3.97
2022-08-16T10:27:19.576Z,3.50
2022-08-16T10:28:39.098Z,3.55
2022-08-16T10:31:14.457Z,4.45
2022-08-16T10:33:45.067Z,3.53
2022-08-16T10:36:39.263Z,4.30
2022-08-16T10:39:01.479Z,4.10
2022-08-16T10:41:29.119Z,3.65
2022-08-16T10:43:56.870Z,3.55
2022-08-16T10:46:40.097Z,3.33
2022-08-16T10:49:12.307Z,2.78
2022-08-16T10:52:01.809Z,3.03
2022-08-16T10:54:29.390Z,3.22
2022-08-16T10:57:01.017Z,3.28
2022-08-16T10:59:46.975Z,2.88
2022-08-16T11:02:57.793Z,3.33
2022-08-16T11:05:16.596Z,3.15
2022-08-16T11:07:52.658Z,3.15
2022-08-16T11:19:12.543Z,3.00
2022-08-16T11:24:41.945Z,2.88
2022-08-16T11:27:20.154Z,2.92
2022-08-16T11:29:52.176Z,3.25
2022-08-16T11:32:32.555Z,3.05
2022-08-16T11:35:10.808Z,3.20
2022-08-16T11:38:06.200Z,2.90
2022-08-16T11:40:52.281Z,3.35
2022-08-16T11:43:24.979Z,3.30
2022-08-16T11:45:57.121Z,3.50
2022-08-16T11:48:27.858Z,3.30
2022-08-16T11:50:56.315Z,3.80
2022-08-16T11:53:24.748Z,3.63
2022-08-16T11:55:55.496Z,3.40
2022-08-16T11:58:26.031Z,4.32
2022-08-16T12:00:57.456Z,3.53
2022-08-16T12:03:35.371Z,2.90
2022-08-16T12:06:30.651Z,4.13
2022-08-16T12:09:01.040Z,3.90
2022-08-16T12:11:31.932Z,2.70
2022-08-16T12:14:04.263Z,3.88
2022-08-16T12:16:36.974Z,4.00
2022-08-16T12:19:10.675Z,2.88
2022-08-16T12:21:58.876Z,3.40
2022-08-16T12:24:28.449Z,3.72
2022-08-16T12:26:57.549Z,4.35
2022-08-16T12:29:29.392Z,2.92
2022-08-16T12:32:01.706Z,2.80
2022-08-16T12:34:50.412Z,3.20
2022-08-16T12:37:21.782Z,2.80
2022-08-16T12:39:56.720Z,2.90
2022-08-16T12:42:35.456Z,3.53
2022-08-16T12:45:12.467Z,3.55
2022-08-16T12:48:29.702Z,3.42
2022-08-16T12:50:49.242Z,7.07
2022-08-16T12:53:20.569Z,2.80
2022-08-16T12:55:49.939Z,2.63
2022-08-16T12:58:48.317Z,4.00
2022-08-16T13:01:09.356Z,5.50
2022-08-16T13:03:40.488Z,3.72
2022-08-16T13:06:08.759Z,8.02
2022-08-16T13:08:36.494Z,3.38
2022-08-16T13:11:07.888Z,3.58
2022-08-16T13:13:36.139Z,4.40
2022-08-16T13:16:15.378Z,5.63
2022-08-16T13:18:52.573Z,2.80
2022-08-16T13:21:23.475Z,2.60
2022-08-16T13:23:55.189Z,2.97
2022-08-16T13:26:26.390Z,2.80
2022-08-16T13:28:54.403Z,2.90
2022-08-16T13:31:21.838Z,3.17
2022-08-16T13:33:51.840Z,2.35
2022-08-16T13:36:38.844Z,2.33
2022-08-16T13:39:09.875Z,2.85
2022-08-16T13:41:37.788Z,2.40
2022-08-16T13:44:09.401Z,2.05
2022-08-16T13:46:37.351Z,2.30
2022-08-16T13:49:05.956Z,2.47
2022-08-16T13:51:33.179Z,3.60
2022-08-16T13:54:04.537Z,3.00
2022-08-16T13:56:39.484Z,3.47
2022-08-16T13:59:19.919Z,3.88
2022-08-16T14:02:02.834Z,2.90
2022-08-16T14:04:34.188Z,2.50
2022-08-16T14:07:05.529Z,2.60
2022-08-16T14:09:36.809Z,2.00
2022-08-16T14:12:21.972Z,2.10
2022-08-16T14:14:54.515Z,2.40
2022-08-16T14:17:25.955Z,2.10
2022-08-16T14:19:54.028Z,2.00
2022-08-16T14:22:39.911Z,2.08
2022-08-16T14:25:19.017Z,1.90
2022-08-16T14:27:46.875Z,2.27
2022-08-16T14:30:19.184Z,2.33
2022-08-16T14:32:50.858Z,1.63
2022-08-16T14:35:36.822Z,2.08
2022-08-16T14:38:18.597Z,2.70
2022-08-16T14:40:52.750Z,3.25
2022-08-16T14:43:29.796Z,2.50
2022-08-16T14:45:58.127Z,2.40
2022-08-16T14:48:26.319Z,2.60
2022-08-16T14:50:55.569Z,2.20
2022-08-16T14:53:25.574Z,2.25
2022-08-16T14:55:54.622Z,2.20
2022-08-16T14:58:35.080Z,2.20
2022-08-16T15:01:10.077Z,2.13
2022-08-16T15:03:42.288Z,1.90
2022-08-16T15:06:13.213Z,2.08
2022-08-16T15:08:42.236Z,2.03
2022-08-16T15:11:09.415Z,2.00
2022-08-16T15:13:36.581Z,2.38
2022-08-16T15:16:04.905Z,2.22
2022-08-16T15:18:33.481Z,1.63
2022-08-16T15:21:04.713Z,2.10
2022-08-16T15:23:33.925Z,1.63
2022-08-16T15:26:03.915Z,1.85
2022-08-16T15:28:37.118Z,2.10
2022-08-16T15:31:10.522Z,3.63
2022-08-16T15:33:49.995Z,5.43
2022-08-16T15:36:21.041Z,6.07
2022-08-16T15:39:02.852Z,5.15
2022-08-16T15:41:43.129Z,5.30
2022-08-16T15:44:17.883Z,4.97
2022-08-16T15:46:57.069Z,5.18
2022-08-16T15:49:37.195Z,5.47
2022-08-16T15:52:11.167Z,6.00
2022-08-16T15:54:51.492Z,5.20
2022-08-16T15:57:27.168Z,5.30
2022-08-16T15:59:56.439Z,5.00
2022-08-16T16:02:39.486Z,5.22
2022-08-16T16:05:10.166Z,5.10
2022-08-16T16:07:40.810Z,4.88
2022-08-16T16:10:29.513Z,4.90
2022-08-16T16:13:03.727Z,4.32
2022-08-16T16:15:40.326Z,4.90
2022-08-16T16:18:09.947Z,5.00
2022-08-16T16:20:46.562Z,4.95
2022-08-16T16:23:19.428Z,4.68
2022-08-16T16:25:52.324Z,5.20
2022-08-16T16:29:06.099Z,5.10
2022-08-16T16:31:16.217Z,5.18
2022-08-16T16:33:50.458Z,5.40
2022-08-16T16:36:22.228Z,4.72
2022-08-16T16:38:52.791Z,4.78
2022-08-16T16:41:25.476Z,4.82
2022-08-16T16:43:55.997Z,4.82
2022-08-16T16:46:41.995Z,4.65
2022-08-16T16:49:13.887Z,4.60
2022-08-16T16:51:44.897Z,4.20
2022-08-16T16:54:28.005Z,4.40
2022-08-16T16:56:59.172Z,4.47
2022-08-16T16:59:28.034Z,4.47
2022-08-16T17:02:38.661Z,4.15
2022-08-16T17:04:47.206Z,4.60
2022-08-16T17:07:16.274Z,4.28
2022-08-16T17:09:46.821Z,4.85
2022-08-16T17:12:24.665Z,4.82
2022-08-16T17:14:55.961Z,3.92
2022-08-16T17:17:24.103Z,4.20
2022-08-16T17:19:51.619Z,4.25
2022-08-16T17:22:22.887Z,4.50
2022-08-16T17:24:53.228Z,5.47
2022-08-16T17:27:32.060Z,4.47
2022-08-16T17:30:15.046Z,4.22
2022-08-16T17:32:54.997Z,4.72
2022-08-16T17:35:37.743Z,4.72
2022-08-16T17:38:09.041Z,4.32
2022-08-16T17:43:36.453Z,5.15
2022-08-16T17:46:06.676Z,4.70
2022-08-16T17:48:54.534Z,4.47
2022-08-16T17:51:27.545Z,6.22
2022-08-16T17:53:55.098Z,7.28
2022-08-16T17:56:22.356Z,5.63
2022-08-16T17:58:49.686Z,5.82
2022-08-16T18:01:27.321Z,4.32
2022-08-16T18:04:09.212Z,4.45
2022-08-16T18:06:39.491Z,4.40
2022-08-16T18:09:08.719Z,4.47
2022-08-16T18:11:42.927Z,19.90
2022-08-16T18:14:13.129Z,9.32
2022-08-16T18:16:41.273Z,11.93
2022-08-16T18:19:10.524Z,8.00
2022-08-16T18:21:56.655Z,5.82
2022-08-16T18:24:24.760Z,5.60
2022-08-16T18:26:52.974Z,5.65
2022-08-16T18:29:21.204Z,5.43
2022-08-16T18:31:50.783Z,6.25
2022-08-16T18:34:20.602Z,5.47
2022-08-16T18:36:48.436Z,5.85
2022-08-16T18:39:16.220Z,5.43
2022-08-16T18:41:46.976Z,5.55
2022-08-16T18:44:26.510Z,5.95
2022-08-16T18:46:55.869Z,6.05
2022-08-16T18:49:23.291Z,6.07
2022-08-16T18:51:50.979Z,5.82
2022-08-16T18:54:18.660Z,5.90
2022-08-16T18:56:56.184Z,5.78
2022-08-16T18:59:30.814Z,6.35
2022-08-16T19:02:04.037Z,6.13
2022-08-16T19:04:55.706Z,5.90
2022-08-16T19:07:31.013Z,5.88
2022-08-16T19:10:03.956Z,6.05
2022-08-16T19:12:38.417Z,6.03
2022-08-16T19:15:20.117Z,6.28
2022-08-16T19:17:47.799Z,6.25
2022-08-16T19:20:19.383Z,6.15
2022-08-16T19:23:05.935Z,6.88
2022-08-16T19:25:46.274Z,6.47
2022-08-16T19:28:58.512Z,6.80
2022-08-16T19:31:22.101Z,6.45
2022-08-16T19:33:55.327Z,6.03
2022-08-16T19:36:36.869Z,5.68
2022-08-16T19:39:12.232Z,6.45
2022-08-16T19:41:53.888Z,6.53
2022-08-16T19:44:22.833Z,6.75
2022-08-16T19:46:50.682Z,6.78
2022-08-16T19:49:17.849Z,6.65
2022-08-16T19:51:47.037Z,6.32
2022-08-16T19:54:15.157Z,6.18
2022-08-16T19:56:42.296Z,6.90
2022-08-16T19:59:19.283Z,7.13
2022-08-16T20:01:49.206Z,6.47
2022-08-16T20:04:16.268Z,6.55
2022-08-16T20:06:43.546Z,7.65
2022-08-16T20:09:15.195Z,8.32
2022-08-16T20:11:48.335Z,6.93
2022-08-16T20:14:24.100Z,6.18
2022-08-16T20:16:59.486Z,6.50
2022-08-16T20:19:33.431Z,6.50
2022-08-16T20:22:52.349Z,6.47
2022-08-16T20:25:28.196Z,6.78
2022-08-16T20:27:56.966Z,6.00
2022-08-16T20:30:25.714Z,6.93
2022-08-16T20:32:54.483Z,6.20
2022-08-16T20:35:25.825Z,5.82
2022-08-16T20:37:54.716Z,6.60
2022-08-16T20:40:28.823Z,6.40
2022-08-16T20:43:09.568Z,6.63
2022-08-16T20:45:38.389Z,6.72
2022-08-16T20:48:07.135Z,6.45
2022-08-16T20:50:35.829Z,7.45
2022-08-16T20:53:04.455Z,7.18
2022-08-16T20:55:35.596Z,7.63
2022-08-16T20:58:03.045Z,7.07
2022-08-16T21:00:30.991Z,6.78
2022-08-16T21:02:58.283Z,6.88
2022-08-16T21:05:31.351Z,7.03
2022-08-16T21:07:59.607Z,7.40
2022-08-16T21:10:27.212Z,7.25
2022-08-16T21:12:58.398Z,7.68
2022-08-16T21:15:28.019Z,8.23
2022-08-16T21:17:55.527Z,8.90
2022-08-16T21:20:26.076Z,9.15
2022-08-16T21:22:56.585Z,9.30
2022-08-16T21:25:24.963Z,10.90
2022-08-16T21:28:39.013Z,11.07
2022-08-16T21:30:40.412Z,11.90
2022-08-16T21:33:14.848Z,11.38
2022-08-16T21:35:46.863Z,11.63
2022-08-16T21:38:30.179Z,12.10
2022-08-16T21:40:59.603Z,11.52
2022-08-16T21:43:31.833Z,11.68
2022-08-16T21:46:01.783Z,11.70
2022-08-16T21:48:35.227Z,13.32
2022-08-16T21:51:12.171Z,13.43
2022-08-16T21:53:39.956Z,13.35
2022-08-16T21:56:12.659Z,12.98
2022-08-16T21:58:52.675Z,13.70
2022-08-16T22:01:23.085Z,14.65
2022-08-16T22:04:36.088Z,13.82
2022-08-16T22:06:41.035Z,13.93
2022-08-16T22:09:10.631Z,13.68
2022-08-16T22:11:38.394Z,14.57
2022-08-16T22:14:05.589Z,14.00
2022-08-16T22:16:37.425Z,13.75
2022-08-16T22:19:06.157Z,14.63
2022-08-16T22:21:35.274Z,13.93
2022-08-16T22:24:05.711Z,14.73
2022-08-16T22:26:42.830Z,15.18
2022-08-16T22:29:13.946Z,14.52
2022-08-16T22:31:43.857Z,14.60
2022-08-16T22:34:12.972Z,14.75
2022-08-16T22:36:40.484Z,14.13
2022-08-16T22:39:11.712Z,14.45
2022-08-16T22:41:42.169Z,14.55
2022-08-16T22:44:09.822Z,15.27
2022-08-16T22:46:37.656Z,15.95
2022-08-16T22:49:07.047Z,14.75
2022-08-16T22:51:35.757Z,15.57
2022-08-16T22:54:33.951Z,14.77
2022-08-16T22:56:50.509Z,15.25
2022-08-16T22:59:17.422Z,15.27
2022-08-16T23:01:44.521Z,15.00
2022-08-16T23:04:11.626Z,16.17
2022-08-16T23:06:38.742Z,15.43
2022-08-16T23:09:05.878Z,15.80
2022-08-16T23:11:33.038Z,16.30
2022-08-16T23:14:00.297Z,16.35
2022-08-16T23:16:34.755Z,15.98
2022-08-16T23:19:10.949Z,16.80
2022-08-16T23:21:46.498Z,17.00
2022-08-16T23:24:14.124Z,16.60
2022-08-16T23:27:00.500Z,17.42
2022-08-16T23:29:45.832Z,15.60
2022-08-16T23:32:31.069Z,16.77
2022-08-16T23:35:22.229Z,17.08
2022-08-16T23:38:08.599Z,17.00
2022-08-16T23:41:14.042Z,16.70
2022-08-16T23:43:43.916Z,16.70
2022-08-16T23:46:17.082Z,17.48
2022-08-16T23:50:01.599Z,16.95
2022-08-16T23:51:34.133Z,16.17
2022-08-16T23:54:01.242Z,17.20
2022-08-16T23:56:35.464Z,17.65
2022-08-16T23:59:07.985Z,18.00
